Terminal Aerodrome Forecast
Issued by NWS

Home | Current Version | Previous Version | Text Only | Print | Product List | Glossary Off
Versions: 1 2 3 4 5 6 7 8 9 10 11 12 13 14 15 16 17 18 19 20 21

000
FTUS43 KMPX 141736
TAFAXN
TAF
KAXN 141736Z 1418/1518 11012KT P6SM VCSH SCT100
     FM142100 06012G18KT P6SM -SHRA OVC035
     FM142300 03013G20KT P6SM SHRA OVC020
     FM150400 35014G22KT 6SM -SHRA BR OVC015
     FM150900 33014G19KT P6SM OVC035
     FM151300 31008KT P6SM SCT040=

USA.gov is the U.S. government's official web portal to all federal, state and local government web resources and services.